createdAt,value
2022-07-26T00:00:14.250Z,2.10
2022-07-26T00:02:18.500Z,2.50
2022-07-26T00:04:20.233Z,2.97
2022-07-26T00:06:21.820Z,2.87
2022-07-26T00:08:23.419Z,2.30
2022-07-26T00:10:25.253Z,2.73
2022-07-26T00:12:26.906Z,2.57
2022-07-26T00:14:29.906Z,2.97
2022-07-26T00:16:31.547Z,2.63
2022-07-26T00:18:33.236Z,2.30
2022-07-26T00:20:34.827Z,2.57
2022-07-26T00:22:37.042Z,3.30
2022-07-26T00:24:38.632Z,2.90
2022-07-26T00:26:40.205Z,2.53
2022-07-26T00:28:41.942Z,2.23
2022-07-26T00:30:44.889Z,2.63
2022-07-26T00:32:46.850Z,2.40
2022-07-26T00:34:48.366Z,2.77
2022-07-26T00:36:49.966Z,2.40
2022-07-26T00:38:51.484Z,2.50
2022-07-26T00:40:53.059Z,2.80
2022-07-26T00:42:54.758Z,2.80
2022-07-26T00:44:56.316Z,2.90
2022-07-26T00:46:59.221Z,3.20
2022-07-26T00:49:00.887Z,2.83
2022-07-26T00:51:02.498Z,2.40
2022-07-26T00:53:04.106Z,2.67
2022-07-26T00:55:07.249Z,2.80
2022-07-26T00:57:08.811Z,2.77
2022-07-26T00:59:10.714Z,2.77
2022-07-26T01:01:12.704Z,2.80
2022-07-26T01:03:15.650Z,2.87
2022-07-26T01:05:17.332Z,2.30
2022-07-26T01:07:19.202Z,2.77
2022-07-26T01:09:21.092Z,3.23
2022-07-26T01:11:22.907Z,2.77
2022-07-26T01:13:24.558Z,2.40
2022-07-26T01:15:26.125Z,2.90
2022-07-26T01:17:27.789Z,3.00
2022-07-26T01:19:30.884Z,2.67
2022-07-26T01:21:33.842Z,3.00
2022-07-26T01:23:35.575Z,2.67
2022-07-26T01:25:42.427Z,2.90
2022-07-26T01:27:45.317Z,3.10
2022-07-26T01:29:46.870Z,2.60
2022-07-26T01:31:49.030Z,2.57
2022-07-26T01:33:51.371Z,2.40
2022-07-26T01:35:52.945Z,2.10
2022-07-26T01:37:55.937Z,3.07
2022-07-26T01:39:57.527Z,3.17
2022-07-26T01:41:59.094Z,2.90
2022-07-26T01:44:01.137Z,2.93
2022-07-26T01:46:02.880Z,3.10
2022-07-26T01:48:05.279Z,2.90
2022-07-26T01:50:08.802Z,2.40
2022-07-26T01:52:10.374Z,2.50
2022-07-26T01:54:13.331Z,2.57
2022-07-26T01:56:15.054Z,2.87
2022-07-26T01:58:16.630Z,2.60
2022-07-26T02:00:18.450Z,3.47
2022-07-26T02:02:23.867Z,2.43
2022-07-26T02:04:25.501Z,3.17
2022-07-26T02:06:27.028Z,2.40
2022-07-26T02:08:29.497Z,2.53
2022-07-26T02:10:33.323Z,2.40
2022-07-26T02:12:35.816Z,2.77
2022-07-26T02:14:37.486Z,2.20
2022-07-26T02:16:39.040Z,2.83
2022-07-26T02:18:41.375Z,2.87
2022-07-26T02:20:42.945Z,2.40
2022-07-26T02:22:44.458Z,3.20
2022-07-26T02:24:46.501Z,2.43
2022-07-26T02:26:49.609Z,2.97
2022-07-26T02:28:51.153Z,2.60
2022-07-26T02:30:52.767Z,2.50
2022-07-26T02:32:54.899Z,3.27
2022-07-26T02:34:56.511Z,2.60
2022-07-26T02:36:58.263Z,2.13
2022-07-26T02:38:59.865Z,2.50
2022-07-26T02:41:01.423Z,3.20
2022-07-26T02:43:04.835Z,2.80
2022-07-26T02:45:07.394Z,2.90
2022-07-26T02:47:09.050Z,2.87
2022-07-26T02:49:14.328Z,3.13
2022-07-26T02:51:16.342Z,3.77
2022-07-26T02:53:17.935Z,3.10
2022-07-26T02:55:21.023Z,2.57
2022-07-26T02:57:22.589Z,3.20
2022-07-26T02:59:25.506Z,3.03
2022-07-26T03:01:27.137Z,3.23
2022-07-26T03:03:28.934Z,2.50
2022-07-26T03:05:30.523Z,3.30
2022-07-26T03:07:32.297Z,2.90
2022-07-26T03:09:33.877Z,2.90
2022-07-26T03:11:35.430Z,3.07
2022-07-26T03:13:37.002Z,3.10
2022-07-26T03:15:40.049Z,3.97
2022-07-26T03:17:42.319Z,3.20
2022-07-26T03:19:43.945Z,3.10
2022-07-26T03:21:46.554Z,2.93
2022-07-26T03:23:48.251Z,2.97
2022-07-26T03:25:49.989Z,2.50
2022-07-26T03:27:54.459Z,3.40
2022-07-26T03:29:57.850Z,3.33
2022-07-26T03:32:00.776Z,3.20
2022-07-26T03:34:04.048Z,3.23
2022-07-26T03:36:05.979Z,3.10
2022-07-26T03:38:13.246Z,3.03
2022-07-26T03:40:15.917Z,2.87
2022-07-26T03:42:17.515Z,3.73
2022-07-26T03:44:19.080Z,3.90
2022-07-26T03:46:20.724Z,3.17
2022-07-26T03:48:23.658Z,3.60
2022-07-26T03:50:25.247Z,3.50
2022-07-26T03:52:26.835Z,3.53
2022-07-26T03:54:28.370Z,3.03
2022-07-26T03:56:30.003Z,3.23
2022-07-26T03:58:31.693Z,3.10
2022-07-26T04:00:33.273Z,3.30
2022-07-26T04:02:34.932Z,3.10
2022-07-26T04:04:37.932Z,3.20
2022-07-26T04:06:41.838Z,3.20
2022-07-26T04:08:44.953Z,3.37
2022-07-26T04:10:46.680Z,3.47
2022-07-26T04:12:48.238Z,3.20
2022-07-26T04:14:50.007Z,3.60
2022-07-26T04:16:51.661Z,3.87
2022-07-26T04:18:53.902Z,3.50
2022-07-26T04:20:57.033Z,3.17
2022-07-26T04:22:58.654Z,3.37
2022-07-26T04:25:00.277Z,2.90
2022-07-26T04:27:01.862Z,3.10
2022-07-26T04:29:03.827Z,3.57
2022-07-26T04:31:06.644Z,3.23
2022-07-26T04:33:08.423Z,3.17
2022-07-26T04:35:10.025Z,3.47
2022-07-26T04:37:12.950Z,3.13
2022-07-26T04:39:14.588Z,3.23
2022-07-26T04:41:16.173Z,4.47
2022-07-26T04:43:18.038Z,6.50
2022-07-26T04:45:20.972Z,5.73
2022-07-26T04:47:25.354Z,4.67
2022-07-26T04:49:27.085Z,5.50
2022-07-26T04:51:28.663Z,5.30
2022-07-26T04:53:31.597Z,6.30
2022-07-26T04:55:33.155Z,5.70
2022-07-26T04:57:34.894Z,9.47
2022-07-26T04:59:37.697Z,7.37
2022-07-26T05:01:39.377Z,6.00
2022-07-26T05:03:40.946Z,5.90
2022-07-26T05:05:42.553Z,5.53
2022-07-26T05:07:46.067Z,5.73
2022-07-26T05:09:48.958Z,5.77
2022-07-26T05:11:50.941Z,5.77
2022-07-26T05:13:52.506Z,5.23
2022-07-26T05:15:54.186Z,5.27
2022-07-26T05:17:55.850Z,4.87
2022-07-26T05:20:01.299Z,4.30
2022-07-26T05:22:04.688Z,4.50
2022-07-26T05:24:07.942Z,4.70
2022-07-26T05:26:12.273Z,4.10
2022-07-26T05:28:13.889Z,4.37
2022-07-26T05:30:15.506Z,4.40
2022-07-26T05:32:17.089Z,3.80
2022-07-26T05:34:18.717Z,6.47
2022-07-26T05:36:20.622Z,3.90
2022-07-26T05:38:37.640Z,3.63
2022-07-26T05:40:39.238Z,3.67
2022-07-26T05:42:42.287Z,3.50
2022-07-26T05:44:43.907Z,3.47
2022-07-26T05:46:46.125Z,3.53
2022-07-26T05:48:47.782Z,4.03
2022-07-26T05:50:49.915Z,3.70
2022-07-26T05:52:51.531Z,3.10
2022-07-26T05:54:53.192Z,3.27
2022-07-26T05:56:54.737Z,2.80
2022-07-26T05:58:57.635Z,3.77
2022-07-26T06:00:59.285Z,3.00
2022-07-26T06:03:00.880Z,3.47
2022-07-26T06:05:02.425Z,3.20
2022-07-26T06:07:04.074Z,3.23
2022-07-26T06:09:05.706Z,3.50
2022-07-26T06:11:07.324Z,2.90
2022-07-26T06:13:09.438Z,2.73
2022-07-26T06:15:15.680Z,3.40
2022-07-26T06:17:17.776Z,2.63
2022-07-26T06:19:19.385Z,3.20
2022-07-26T06:21:21.046Z,3.17
2022-07-26T06:23:30.959Z,3.10
2022-07-26T06:25:36.911Z,3.23
2022-07-26T06:27:38.640Z,3.50
2022-07-26T06:29:40.244Z,3.00
2022-07-26T06:31:43.225Z,3.07
2022-07-26T06:33:44.846Z,2.87
2022-07-26T06:35:46.426Z,2.93
2022-07-26T06:37:48.127Z,3.20
2022-07-26T06:39:49.687Z,3.50
2022-07-26T06:41:51.341Z,2.83
2022-07-26T06:43:52.983Z,2.80
2022-07-26T06:45:54.628Z,3.03
2022-07-26T06:47:57.637Z,2.87
2022-07-26T06:49:59.281Z,2.50
2022-07-26T06:52:00.918Z,2.47
2022-07-26T06:54:02.539Z,3.13
2022-07-26T06:56:04.899Z,2.63
2022-07-26T06:58:06.558Z,3.03
2022-07-26T07:00:09.380Z,2.87
2022-07-26T07:02:11.041Z,2.80
2022-07-26T07:04:14.024Z,2.70
2022-07-26T07:06:15.653Z,2.67
2022-07-26T07:08:17.332Z,2.33
2022-07-26T07:10:19.596Z,2.53
2022-07-26T07:12:25.406Z,3.10
2022-07-26T07:14:27.086Z,2.70
2022-07-26T07:16:29.001Z,2.70
2022-07-26T07:18:30.594Z,2.47
2022-07-26T07:20:33.689Z,2.77
2022-07-26T07:22:35.259Z,2.50
2022-07-26T07:24:37.173Z,2.70
2022-07-26T07:26:39.569Z,2.43
2022-07-26T07:28:41.171Z,2.83
2022-07-26T07:30:42.887Z,2.60
2022-07-26T07:32:45.110Z,2.47
2022-07-26T07:34:47.555Z,3.07
2022-07-26T07:36:51.247Z,2.33
2022-07-26T07:38:52.867Z,2.77
2022-07-26T07:40:54.486Z,2.50
2022-07-26T07:42:56.144Z,2.00
2022-07-26T07:44:57.799Z,2.23
2022-07-26T07:46:59.420Z,2.23
2022-07-26T07:49:01.112Z,1.93
2022-07-26T07:51:03.092Z,1.63
2022-07-26T07:53:06.129Z,1.97
2022-07-26T07:55:40.508Z,2.30
2022-07-26T07:57:30.777Z,1.80
2022-07-26T07:59:33.755Z,2.03
2022-07-26T08:01:41.087Z,3.00
2022-07-26T08:03:42.977Z,2.47
2022-07-26T08:05:51.850Z,2.70
2022-07-26T08:07:53.450Z,2.00
2022-07-26T08:09:56.650Z,1.93
2022-07-26T08:11:58.531Z,2.70
2022-07-26T08:14:00.498Z,2.30
2022-07-26T08:16:02.179Z,2.70
2022-07-26T08:18:04.538Z,2.43
2022-07-26T08:20:13.754Z,1.90
2022-07-26T08:22:17.845Z,1.97
2022-07-26T08:24:22.281Z,1.97
2022-07-26T08:26:25.403Z,1.80
2022-07-26T08:28:47.017Z,1.97
2022-07-26T08:30:49.240Z,1.80
2022-07-26T08:32:50.807Z,2.43
2022-07-26T08:34:52.437Z,1.60
2022-07-26T08:37:15.524Z,1.70
2022-07-26T08:39:15.633Z,1.57
2022-07-26T08:41:17.784Z,1.90
2022-07-26T08:43:21.114Z,1.60
2022-07-26T08:45:23.673Z,1.43
2022-07-26T08:47:37.637Z,2.13
2022-07-26T08:49:42.629Z,1.80
2022-07-26T08:51:44.958Z,1.67
2022-07-26T08:53:47.467Z,1.60
2022-07-26T08:56:07.219Z,1.93
2022-07-26T08:58:09.323Z,2.07
2022-07-26T09:00:18.286Z,1.80
2022-07-26T09:02:19.904Z,1.43
2022-07-26T09:04:31.605Z,1.90
2022-07-26T09:06:34.448Z,2.20
2022-07-26T09:08:36.224Z,1.80
2022-07-26T09:10:39.357Z,2.20
2022-07-26T09:12:41.681Z,2.10
2022-07-26T09:14:43.595Z,2.23
2022-07-26T09:16:58.775Z,1.93
2022-07-26T09:19:15.623Z,2.40
2022-07-26T09:21:28.019Z,1.93
2022-07-26T09:23:39.106Z,1.70
2022-07-26T09:25:42.025Z,1.47
2022-07-26T09:27:43.636Z,1.80
2022-07-26T09:29:47.708Z,1.93
2022-07-26T09:31:49.391Z,1.30
2022-07-26T09:33:52.423Z,1.93
2022-07-26T09:36:02.115Z,1.90
2022-07-26T09:38:13.097Z,2.17
2022-07-26T09:40:16.585Z,2.40
2022-07-26T09:42:28.666Z,2.10
2022-07-26T09:44:31.092Z,1.57
2022-07-26T09:46:34.170Z,2.03
2022-07-26T09:48:52.313Z,1.83
2022-07-26T09:50:58.889Z,2.03
2022-07-26T09:53:03.775Z,2.30
2022-07-26T09:55:07.459Z,1.70
2022-07-26T09:57:09.267Z,2.10
2022-07-26T09:59:13.887Z,1.57
2022-07-26T10:01:15.538Z,1.60
2022-07-26T10:03:17.365Z,1.70
2022-07-26T10:05:19.496Z,1.90
2022-07-26T10:07:22.543Z,1.80
2022-07-26T10:09:24.717Z,2.10
2022-07-26T10:11:31.980Z,1.53
2022-07-26T10:13:33.771Z,1.70
2022-07-26T10:15:37.587Z,2.10
2022-07-26T10:17:41.200Z,2.20
2022-07-26T10:19:45.823Z,2.10
2022-07-26T10:21:49.314Z,1.50
2022-07-26T10:23:53.441Z,1.50
2022-07-26T10:25:55.105Z,1.57
2022-07-26T10:28:02.040Z,1.53
2022-07-26T10:30:23.810Z,1.73
2022-07-26T10:32:25.574Z,1.70
2022-07-26T10:34:30.869Z,2.17
2022-07-26T10:36:35.544Z,1.80
2022-07-26T10:38:37.665Z,1.50
2022-07-26T10:40:56.428Z,2.20
2022-07-26T10:43:30.127Z,1.37
2022-07-26T10:45:29.537Z,1.90
2022-07-26T10:47:35.256Z,1.70
2022-07-26T10:49:38.978Z,1.60
2022-07-26T10:51:41.409Z,1.80
2022-07-26T10:53:42.992Z,1.80
2022-07-26T10:55:47.686Z,1.30
2022-07-26T10:57:49.367Z,1.50
2022-07-26T10:59:56.281Z,1.43
2022-07-26T11:01:58.629Z,2.10
2022-07-26T11:04:00.583Z,1.60
2022-07-26T11:06:09.993Z,1.60
2022-07-26T11:08:11.576Z,1.90
2022-07-26T11:10:13.154Z,1.33
2022-07-26T11:12:17.153Z,1.60
2022-07-26T11:14:18.813Z,1.50
2022-07-26T11:16:20.969Z,1.30
2022-07-26T11:18:25.296Z,1.60
2022-07-26T11:20:29.821Z,1.50
2022-07-26T11:22:32.513Z,1.43
2022-07-26T11:24:39.657Z,1.20
2022-07-26T11:26:42.496Z,1.50
2022-07-26T11:28:54.479Z,1.60
2022-07-26T11:30:57.982Z,1.40
2022-07-26T11:32:59.722Z,1.37
2022-07-26T11:35:03.604Z,1.20
2022-07-26T11:37:05.864Z,1.80
2022-07-26T11:39:09.527Z,1.80
2022-07-26T11:41:11.644Z,1.33
2022-07-26T11:43:20.763Z,1.23
2022-07-26T11:45:23.813Z,1.50
2022-07-26T11:47:26.568Z,1.47
2022-07-26T11:51:53.658Z,1.67
2022-07-26T11:53:55.367Z,1.47
2022-07-26T11:56:10.232Z,1.67
2022-07-26T11:58:11.976Z,1.40
2022-07-26T12:00:15.362Z,1.43
2022-07-26T12:02:20.894Z,1.40
2022-07-26T12:04:25.255Z,1.50
2022-07-26T12:06:27.173Z,1.23
2022-07-26T12:08:39.089Z,1.50
2022-07-26T12:10:40.706Z,1.50
2022-07-26T12:12:42.633Z,1.10
2022-07-26T12:14:54.862Z,1.37
2022-07-26T12:16:57.013Z,1.50
2022-07-26T12:19:00.099Z,1.53
2022-07-26T12:21:08.470Z,1.50
2022-07-26T12:23:10.846Z,1.50
2022-07-26T12:25:12.433Z,2.13
2022-07-26T12:27:17.128Z,1.80
2022-07-26T12:29:27.185Z,1.70
2022-07-26T12:31:30.822Z,1.70
2022-07-26T12:33:32.668Z,1.90
2022-07-26T12:35:35.939Z,1.63
2022-07-26T12:37:48.911Z,1.70
2022-07-26T12:40:11.284Z,1.70
2022-07-26T12:42:34.285Z,1.60
2022-07-26T12:44:36.356Z,1.90
2022-07-26T12:46:38.093Z,1.67
2022-07-26T12:48:40.773Z,1.40
2022-07-26T12:50:43.774Z,1.50
2022-07-26T12:52:45.922Z,1.47
2022-07-26T12:54:48.813Z,1.53
2022-07-26T12:56:50.507Z,1.77
2022-07-26T12:58:52.185Z,1.47
2022-07-26T13:00:53.854Z,1.57
2022-07-26T13:02:55.452Z,1.87
2022-07-26T13:05:00.350Z,1.70
2022-07-26T13:07:04.262Z,1.67
2022-07-26T13:09:05.920Z,2.10
2022-07-26T13:11:07.645Z,2.10
2022-07-26T13:13:09.371Z,1.57
2022-07-26T13:15:13.858Z,1.67
2022-07-26T13:17:15.961Z,1.60
2022-07-26T13:19:17.849Z,1.60
2022-07-26T13:21:19.462Z,1.60
2022-07-26T13:23:26.646Z,1.53
2022-07-26T13:25:29.034Z,1.60
2022-07-26T13:27:39.071Z,1.43
2022-07-26T13:29:43.187Z,1.87
2022-07-26T13:31:44.832Z,1.70
2022-07-26T13:33:46.723Z,1.80
2022-07-26T13:35:50.307Z,1.93
2022-07-26T13:37:52.084Z,1.83
2022-07-26T13:39:55.093Z,1.60
2022-07-26T13:41:56.720Z,1.60
2022-07-26T13:43:58.345Z,2.00
2022-07-26T13:46:00.007Z,1.90
2022-07-26T13:48:01.654Z,1.80
2022-07-26T13:50:03.504Z,2.40
2022-07-26T13:52:05.601Z,2.00
2022-07-26T13:54:07.370Z,2.10
2022-07-26T13:56:10.495Z,2.37
2022-07-26T13:58:12.081Z,2.07
2022-07-26T14:00:14.538Z,2.23
2022-07-26T14:02:16.268Z,2.03
2022-07-26T14:04:19.039Z,2.03
2022-07-26T14:06:20.627Z,2.00
2022-07-26T14:08:22.217Z,2.53
2022-07-26T14:10:25.042Z,2.70
2022-07-26T14:12:28.155Z,1.97
2022-07-26T14:14:29.786Z,2.10
2022-07-26T14:16:32.191Z,2.23
2022-07-26T14:18:34.037Z,2.87
2022-07-26T14:20:36.054Z,2.50
2022-07-26T14:22:37.646Z,1.93
2022-07-26T14:24:39.305Z,2.10
2022-07-26T14:26:40.924Z,2.23
2022-07-26T14:28:44.775Z,2.60
2022-07-26T14:30:46.573Z,2.00
2022-07-26T14:32:48.671Z,2.70
2022-07-26T14:34:50.771Z,2.30
2022-07-26T14:36:52.465Z,2.77
2022-07-26T14:38:54.137Z,2.70
2022-07-26T14:40:56.032Z,2.40
2022-07-26T14:43:00.089Z,3.10
2022-07-26T14:45:03.317Z,2.20
2022-07-26T14:47:05.099Z,1.60
2022-07-26T14:49:09.005Z,2.20
2022-07-26T14:51:10.669Z,1.70
2022-07-26T14:53:14.228Z,1.60
2022-07-26T14:55:20.368Z,1.87
2022-07-26T14:57:26.206Z,1.90
2022-07-26T14:59:28.060Z,2.10
2022-07-26T15:01:31.324Z,2.20
2022-07-26T15:03:33.758Z,2.20
2022-07-26T15:05:35.595Z,1.60
2022-07-26T15:07:37.237Z,1.70
2022-07-26T15:09:38.807Z,1.70
2022-07-26T15:11:40.558Z,1.80
2022-07-26T15:13:42.310Z,1.70
2022-07-26T15:15:43.975Z,1.30
2022-07-26T15:17:47.061Z,1.70
2022-07-26T15:19:48.760Z,1.97
2022-07-26T15:21:53.013Z,1.90
2022-07-26T15:23:54.671Z,2.27
2022-07-26T15:25:56.305Z,1.67
2022-07-26T15:27:57.929Z,1.80
2022-07-26T15:30:04.187Z,2.17
2022-07-26T15:32:08.606Z,2.13
2022-07-26T15:34:11.923Z,1.80
2022-07-26T15:36:13.856Z,1.90
2022-07-26T15:38:15.560Z,2.40
2022-07-26T15:40:17.169Z,1.70
2022-07-26T15:42:19.165Z,1.70
2022-07-26T15:44:25.449Z,1.50
2022-07-26T15:46:27.268Z,1.97
2022-07-26T15:48:28.935Z,1.70
2022-07-26T15:50:32.021Z,1.77
2022-07-26T15:52:36.244Z,2.10
2022-07-26T15:54:38.523Z,1.77
2022-07-26T15:56:40.377Z,1.80
2022-07-26T15:58:42.017Z,1.93
2022-07-26T16:00:43.872Z,1.87
2022-07-26T16:02:45.816Z,1.80
2022-07-26T16:04:47.567Z,1.80
2022-07-26T16:06:51.599Z,2.00
2022-07-26T16:09:15.376Z,1.50
2022-07-26T16:11:14.977Z,2.10
2022-07-26T16:13:16.652Z,1.80
2022-07-26T16:15:18.256Z,2.03
2022-07-26T16:17:19.825Z,1.70
2022-07-26T16:19:21.420Z,2.03
2022-07-26T16:21:22.970Z,1.87
2022-07-26T16:23:25.873Z,1.60
2022-07-26T16:25:27.550Z,1.70
2022-07-26T16:27:29.118Z,1.70
2022-07-26T16:29:30.747Z,2.27
2022-07-26T16:31:32.667Z,1.67
2022-07-26T16:33:34.502Z,2.00
2022-07-26T16:35:36.086Z,1.77
2022-07-26T16:37:37.929Z,1.93
2022-07-26T16:39:40.982Z,1.77
2022-07-26T16:41:42.813Z,2.20
2022-07-26T16:43:44.409Z,1.97
2022-07-26T16:45:46.013Z,2.20
2022-07-26T16:47:47.542Z,1.73
2022-07-26T16:49:49.299Z,2.33
2022-07-26T16:51:51.578Z,1.87
2022-07-26T16:53:53.224Z,2.10
2022-07-26T16:55:56.109Z,1.70
2022-07-26T16:57:57.729Z,1.90
2022-07-26T16:59:59.509Z,2.07
2022-07-26T17:02:01.135Z,1.90
2022-07-26T17:04:04.602Z,2.10
2022-07-26T17:06:06.793Z,2.07
2022-07-26T17:08:08.783Z,1.87
2022-07-26T17:10:10.776Z,2.17
2022-07-26T17:12:13.783Z,1.60
2022-07-26T17:14:15.407Z,1.70
2022-07-26T17:16:21.394Z,1.80
2022-07-26T17:18:26.336Z,1.90
2022-07-26T17:20:30.490Z,1.70
2022-07-26T17:22:32.181Z,1.60
2022-07-26T17:24:33.984Z,1.83
2022-07-26T17:26:36.468Z,2.00
2022-07-26T17:28:40.695Z,1.70
2022-07-26T17:30:42.597Z,1.90
2022-07-26T17:32:44.347Z,1.30
2022-07-26T17:34:46.065Z,1.67
2022-07-26T17:36:47.727Z,2.50
2022-07-26T17:38:51.736Z,1.90
2022-07-26T17:40:53.769Z,1.87
2022-07-26T17:42:55.500Z,1.50
2022-07-26T17:44:58.472Z,1.90
2022-07-26T17:47:00.204Z,1.60
2022-07-26T17:49:03.760Z,1.97
2022-07-26T17:51:09.930Z,1.80
2022-07-26T17:53:11.600Z,1.90
2022-07-26T17:55:16.014Z,1.93
2022-07-26T17:57:17.609Z,1.70
2022-07-26T17:59:21.476Z,1.97
2022-07-26T18:01:25.030Z,1.93
2022-07-26T18:03:26.747Z,3.00
2022-07-26T18:05:34.992Z,5.53
2022-07-26T18:07:39.140Z,4.40
2022-07-26T18:09:40.735Z,2.00
2022-07-26T18:11:42.447Z,2.20
2022-07-26T18:13:44.070Z,2.60
2022-07-26T18:15:45.787Z,1.90
2022-07-26T18:17:48.793Z,2.40
2022-07-26T18:19:50.429Z,1.73
2022-07-26T18:21:52.009Z,2.17
2022-07-26T18:24:15.442Z,2.50
2022-07-26T18:26:15.626Z,4.00
2022-07-26T18:28:17.902Z,2.70
2022-07-26T18:30:19.965Z,2.23
2022-07-26T18:32:21.721Z,2.20
2022-07-26T18:34:24.999Z,2.37
2022-07-26T18:36:26.689Z,1.97
2022-07-26T18:38:28.490Z,2.03
2022-07-26T18:40:30.385Z,2.00
2022-07-26T18:42:32.151Z,1.97
2022-07-26T18:44:33.847Z,2.13
2022-07-26T18:46:35.586Z,1.90
2022-07-26T18:48:37.478Z,2.10
2022-07-26T18:50:45.020Z,1.90
2022-07-26T18:52:47.129Z,2.30
2022-07-26T18:54:48.866Z,2.47
2022-07-26T18:56:50.897Z,2.30
2022-07-26T18:58:53.139Z,2.23
2022-07-26T19:00:55.001Z,1.90
2022-07-26T19:02:59.087Z,2.00
2022-07-26T19:05:01.012Z,3.07
2022-07-26T19:07:04.377Z,2.00
2022-07-26T19:09:07.137Z,2.67
2022-07-26T19:11:11.227Z,2.17
2022-07-26T19:13:13.016Z,3.07
2022-07-26T19:15:15.957Z,2.30
2022-07-26T19:17:17.705Z,2.30
2022-07-26T19:19:20.410Z,2.37
2022-07-26T19:21:22.339Z,2.50
2022-07-26T19:23:25.497Z,1.90
2022-07-26T19:25:27.537Z,2.33
2022-07-26T19:27:29.431Z,2.10
2022-07-26T19:29:31.125Z,2.67
2022-07-26T19:31:33.139Z,2.30
2022-07-26T19:33:34.855Z,2.73
2022-07-26T19:35:36.616Z,2.57
2022-07-26T19:37:38.339Z,3.37
2022-07-26T19:39:41.518Z,3.00
2022-07-26T19:41:43.122Z,2.50
2022-07-26T19:43:44.937Z,2.30
2022-07-26T19:45:46.564Z,2.80
2022-07-26T19:47:49.233Z,3.20
2022-07-26T19:49:51.025Z,2.60
2022-07-26T19:51:52.998Z,3.00
2022-07-26T19:53:54.977Z,2.63
2022-07-26T19:55:58.601Z,3.20
2022-07-26T19:58:00.778Z,3.40
2022-07-26T20:00:06.410Z,3.20
2022-07-26T20:02:08.837Z,3.83
2022-07-26T20:04:10.948Z,3.70
2022-07-26T20:06:12.664Z,3.50
2022-07-26T20:08:14.317Z,2.90
2022-07-26T20:10:15.975Z,2.80
2022-07-26T20:12:20.326Z,3.67
2022-07-26T20:14:21.965Z,4.00
2022-07-26T20:16:23.649Z,3.90
2022-07-26T20:18:25.358Z,3.80
2022-07-26T20:20:27.029Z,3.10
2022-07-26T20:22:28.685Z,3.63
2022-07-26T20:24:30.343Z,3.13
2022-07-26T20:26:32.041Z,3.83
2022-07-26T20:28:35.044Z,3.40
2022-07-26T20:30:36.788Z,3.53
2022-07-26T20:32:38.564Z,3.30
2022-07-26T20:34:40.286Z,3.00
2022-07-26T20:36:41.873Z,3.83
2022-07-26T20:38:47.018Z,3.33
2022-07-26T20:40:51.373Z,3.50
2022-07-26T20:42:53.206Z,3.67
2022-07-26T20:44:56.638Z,3.10
2022-07-26T20:46:58.285Z,3.37
2022-07-26T20:49:00.058Z,3.50
2022-07-26T20:51:01.758Z,3.33
2022-07-26T20:53:03.989Z,3.60
2022-07-26T20:55:06.858Z,3.47
2022-07-26T20:57:08.734Z,3.53
2022-07-26T20:59:10.850Z,3.60
2022-07-26T21:01:15.037Z,3.43
2022-07-26T21:03:17.035Z,2.97
2022-07-26T21:05:18.632Z,3.70
2022-07-26T21:07:20.235Z,2.97
2022-07-26T21:09:21.855Z,3.30
2022-07-26T21:11:23.444Z,2.87
2022-07-26T21:13:25.027Z,3.50
2022-07-26T21:15:26.826Z,3.00
2022-07-26T21:17:34.459Z,4.07
2022-07-26T21:19:36.764Z,2.97
2022-07-26T21:21:38.481Z,3.43
2022-07-26T21:23:40.053Z,2.93
2022-07-26T21:25:41.629Z,3.40
2022-07-26T21:27:43.287Z,3.23
2022-07-26T21:29:44.912Z,3.00
2022-07-26T21:31:46.532Z,3.00
2022-07-26T21:33:49.559Z,2.83
2022-07-26T21:35:51.194Z,2.97
2022-07-26T21:37:52.756Z,2.70
2022-07-26T21:39:54.390Z,2.93
2022-07-26T21:41:56.165Z,3.20
2022-07-26T21:43:57.755Z,2.70
2022-07-26T21:45:59.491Z,3.10
2022-07-26T21:48:01.209Z,3.20
2022-07-26T21:50:04.688Z,3.43
2022-07-26T21:52:06.380Z,3.30
2022-07-26T21:54:07.938Z,2.83
2022-07-26T21:56:09.807Z,2.97
2022-07-26T21:58:11.460Z,3.20
2022-07-26T22:00:15.489Z,3.30
2022-07-26T22:02:19.585Z,3.10
2022-07-26T22:04:23.332Z,3.00
2022-07-26T22:06:26.244Z,3.67
2022-07-26T22:08:27.889Z,3.43
2022-07-26T22:10:29.470Z,2.83
2022-07-26T22:12:31.022Z,3.10
2022-07-26T22:14:32.616Z,3.43
2022-07-26T22:16:34.376Z,2.53
2022-07-26T22:18:36.064Z,3.33
2022-07-26T22:20:38.261Z,2.97
2022-07-26T22:22:41.215Z,3.03
2022-07-26T22:24:42.783Z,3.17
2022-07-26T22:26:44.369Z,3.13
2022-07-26T22:28:45.996Z,3.10
2022-07-26T22:30:47.594Z,3.07
2022-07-26T22:32:50.108Z,3.40
2022-07-26T22:34:51.675Z,3.43
2022-07-26T22:36:53.308Z,3.77
2022-07-26T22:38:56.230Z,3.07
2022-07-26T22:40:57.833Z,3.60
2022-07-26T22:42:59.550Z,3.33
2022-07-26T22:45:01.185Z,3.23
2022-07-26T22:47:05.162Z,3.10
2022-07-26T22:49:06.792Z,3.33
2022-07-26T22:51:14.516Z,3.30
2022-07-26T22:53:16.139Z,3.47
2022-07-26T22:55:19.271Z,3.50
2022-07-26T22:57:20.983Z,3.63
2022-07-26T22:59:22.606Z,3.30
2022-07-26T23:01:24.348Z,3.20
2022-07-26T23:03:26.101Z,2.90
2022-07-26T23:05:36.073Z,3.50
2022-07-26T23:07:48.457Z,3.40
2022-07-26T23:09:50.300Z,3.90
2022-07-26T23:11:53.437Z,2.93
2022-07-26T23:13:58.653Z,3.60
2022-07-26T23:16:01.856Z,3.40
2022-07-26T23:18:03.815Z,3.50
2022-07-26T23:20:07.136Z,3.27
2022-07-26T23:22:08.773Z,3.30
2022-07-26T23:24:10.433Z,3.00
2022-07-26T23:26:12.009Z,3.60
2022-07-26T23:28:36.068Z,3.43
2022-07-26T23:30:36.542Z,3.90
2022-07-26T23:32:38.103Z,3.33
2022-07-26T23:34:39.742Z,3.47
2022-07-26T23:36:41.394Z,3.30
2022-07-26T23:38:43.017Z,3.43
2022-07-26T23:40:44.597Z,3.37
2022-07-26T23:42:46.287Z,2.97
2022-07-26T23:44:49.222Z,3.20
2022-07-26T23:46:50.819Z,3.47
2022-07-26T23:48:53.249Z,3.67
2022-07-26T23:50:54.890Z,3.60
2022-07-26T23:52:56.461Z,2.87
2022-07-26T23:54:58.054Z,3.20
2022-07-26T23:56:59.598Z,2.90
2022-07-26T23:59:01.182Z,3.27
